Terminal Aerodrome Forecast
Issued by NWS

Home | Current Version | Previous Version | Text Only | Print | Product List | Glossary On
Versions: 1 2 3 4 5 6 7 8 9 10 11 12 13 14 15 16 17 18
000
FTUS42 KMLB 242341
TAFLEE
TAF
KLEE 242341Z 2500/2524 00000KT P6SM FEW015 BKN080
     FM250500 34003KT 3SM BR BKN005
      TEMPO 2509/2513 1SM BR BKN002
     FM251500 33004KT P6SM SCT035=

USA.gov is the U.S. government's official web portal to all federal, state and local government web resources and services.